createdAt,value
2023-02-28T00:02:11.758Z,5.50
2023-02-28T00:07:00.159Z,5.47
2023-02-28T00:11:49.633Z,5.10
2023-02-28T00:16:36.809Z,5.17
2023-02-28T00:21:23.238Z,4.20
2023-02-28T00:26:12.150Z,4.80
2023-02-28T00:31:01.149Z,4.50
2023-02-28T00:35:47.926Z,4.50
2023-02-28T00:40:36.263Z,4.73
2023-02-28T00:45:24.826Z,4.80
2023-02-28T00:50:15.131Z,5.23
2023-02-28T00:55:00.002Z,4.53
2023-02-28T00:59:49.259Z,4.60
2023-02-28T01:04:35.948Z,4.83
2023-02-28T01:09:25.411Z,4.70
2023-02-28T01:14:14.433Z,5.03
2023-02-28T01:19:01.054Z,5.00
2023-02-28T01:23:52.187Z,5.13
2023-02-28T01:28:37.043Z,4.67
2023-02-28T01:33:27.554Z,5.20
2023-02-28T01:38:22.145Z,4.87
2023-02-28T01:43:31.344Z,5.43
2023-02-28T01:48:22.020Z,5.13
2023-02-28T01:53:13.020Z,5.00
2023-02-28T01:58:00.800Z,5.83
2023-02-28T02:02:46.684Z,5.13
2023-02-28T02:07:35.512Z,5.10
2023-02-28T02:12:36.924Z,5.70
2023-02-28T02:17:39.137Z,4.77
2023-02-28T02:23:03.408Z,4.87
2023-02-28T02:28:18.494Z,5.10
2023-02-28T02:33:27.640Z,5.03
2023-02-28T02:38:27.467Z,5.40
2023-02-28T02:43:22.172Z,4.90
2023-02-28T02:48:08.781Z,5.13
2023-02-28T02:52:56.928Z,6.10
2023-02-28T02:57:55.656Z,5.47
2023-02-28T03:02:51.217Z,5.67
2023-02-28T03:07:34.677Z,5.63
2023-02-28T03:12:22.511Z,5.27
2023-02-28T03:17:39.560Z,5.70
2023-02-28T03:22:50.636Z,5.40
2023-02-28T03:27:48.950Z,5.80
2023-02-28T03:32:43.066Z,6.40
2023-02-28T03:37:30.207Z,5.90
2023-02-28T03:42:17.233Z,5.57
2023-02-28T03:47:16.565Z,6.30
2023-02-28T03:52:09.123Z,6.13
2023-02-28T03:56:59.507Z,6.53
2023-02-28T04:01:46.172Z,6.60
2023-02-28T04:06:32.700Z,6.13
2023-02-28T04:11:23.716Z,6.17
2023-02-28T04:16:33.954Z,6.53
2023-02-28T04:21:28.011Z,7.17
2023-02-28T04:26:13.501Z,7.27
2023-02-28T04:31:03.376Z,7.37
2023-02-28T04:35:49.870Z,7.03
2023-02-28T04:40:38.160Z,6.83
2023-02-28T04:45:24.697Z,6.73
2023-02-28T04:50:18.994Z,6.90
2023-02-28T04:55:02.811Z,9.17
2023-02-28T04:59:48.626Z,8.50
2023-02-28T05:04:41.314Z,8.10
2023-02-28T05:09:26.216Z,7.73
2023-02-28T05:14:15.599Z,8.43
2023-02-28T05:19:02.120Z,7.97
2023-02-28T05:23:48.993Z,8.23
2023-02-28T05:28:37.423Z,8.10
2023-02-28T05:33:25.242Z,7.63
2023-02-28T05:38:18.683Z,8.93
2023-02-28T05:43:02.344Z,9.93
2023-02-28T05:47:50.444Z,8.67
2023-02-28T05:52:37.244Z,10.03
2023-02-28T05:57:29.938Z,11.27
2023-02-28T06:02:15.931Z,10.57
2023-02-28T06:07:02.805Z,9.77
2023-02-28T06:11:48.411Z,9.87
2023-02-28T06:16:41.357Z,11.10
2023-02-28T06:21:28.057Z,10.87
2023-02-28T06:26:13.679Z,10.43
2023-02-28T06:31:00.285Z,9.87
2023-02-28T06:35:53.701Z,11.20
2023-02-28T06:40:37.854Z,11.53
2023-02-28T06:45:27.277Z,10.23
2023-02-28T06:50:14.085Z,9.43
2023-02-28T06:55:02.208Z,10.53
2023-02-28T06:59:51.843Z,11.37
2023-02-28T07:04:41.590Z,10.63
2023-02-28T07:09:25.482Z,11.03
2023-02-28T07:14:12.152Z,10.40
2023-02-28T07:19:04.729Z,11.20
2023-02-28T07:23:49.709Z,11.17
2023-02-28T07:28:37.100Z,11.13
2023-02-28T07:33:24.927Z,11.57
2023-02-28T07:38:15.670Z,11.80
2023-02-28T07:43:03.783Z,11.40
2023-02-28T07:47:50.351Z,12.37
2023-02-28T07:52:38.187Z,9.63
2023-02-28T07:57:25.217Z,10.00
2023-02-28T08:02:18.497Z,9.77
2023-02-28T08:07:01.989Z,8.73
2023-02-28T08:11:51.160Z,8.40
2023-02-28T08:22:15.910Z,7.10
2023-02-28T08:27:00.254Z,7.13
2023-02-28T08:31:50.532Z,7.33
2023-02-28T08:36:37.483Z,7.70
2023-02-28T08:41:25.799Z,7.27
2023-02-28T08:46:15.320Z,8.13
2023-02-28T08:51:07.641Z,6.87
2023-02-28T08:56:06.701Z,7.33
2023-02-28T09:00:54.774Z,6.77
2023-02-28T09:05:40.685Z,7.73
2023-02-28T09:10:29.044Z,7.13
2023-02-28T09:15:21.658Z,6.20
2023-02-28T09:20:07.526Z,7.00
2023-02-28T09:24:55.952Z,6.37
2023-02-28T09:29:41.325Z,6.77
2023-02-28T09:34:31.936Z,5.93
2023-02-28T09:39:19.919Z,5.73
2023-02-28T09:44:09.301Z,6.50
2023-02-28T09:49:07.663Z,6.20
2023-02-28T09:54:01.953Z,5.67
2023-02-28T09:59:00.110Z,5.87
2023-02-28T10:04:21.216Z,5.50
2023-02-28T10:09:15.062Z,9.80
2023-02-28T10:14:12.665Z,11.13
2023-02-28T10:19:06.627Z,6.10
2023-02-28T10:23:51.986Z,6.13
2023-02-28T10:28:38.418Z,5.67
2023-02-28T10:33:30.199Z,7.47
2023-02-28T10:38:27.486Z,5.83
2023-02-28T10:43:22.376Z,6.10
2023-02-28T10:48:08.768Z,6.40
2023-02-28T10:52:55.461Z,9.10
2023-02-28T10:57:40.830Z,7.13
2023-02-28T11:07:24.269Z,7.57
2023-02-28T11:12:43.353Z,8.07
2023-02-28T11:17:58.721Z,7.13
2023-02-28T11:22:48.931Z,8.47
2023-02-28T11:27:53.264Z,7.30
2023-02-28T11:32:38.789Z,7.10
2023-02-28T11:37:26.006Z,7.60
2023-02-28T11:42:43.674Z,7.00
2023-02-28T11:47:48.913Z,7.17
2023-02-28T11:58:29.598Z,7.53
2023-02-28T12:03:47.683Z,6.97
2023-02-28T12:08:55.116Z,7.13
2023-02-28T12:13:55.185Z,7.60
2023-02-28T12:19:13.344Z,6.87
2023-02-28T12:24:24.216Z,7.03
2023-02-28T12:29:29.771Z,5.97
2023-02-28T12:34:25.666Z,6.20
2023-02-28T12:39:19.348Z,6.80
2023-02-28T12:44:10.280Z,7.60
2023-02-28T12:48:58.757Z,6.93
2023-02-28T12:53:56.724Z,6.67
2023-02-28T12:58:45.598Z,7.37
2023-02-28T13:03:54.154Z,7.90
2023-02-28T13:09:13.549Z,7.37
2023-02-28T13:14:02.463Z,8.20
2023-02-28T13:18:48.004Z,8.03
2023-02-28T13:24:20.038Z,7.20
2023-02-28T13:29:30.245Z,8.00
2023-02-28T13:34:18.398Z,8.10
2023-02-28T13:39:05.053Z,8.83
2023-02-28T13:44:09.838Z,7.70
2023-02-28T13:48:55.721Z,8.20
2023-02-28T13:54:02.164Z,7.63
2023-02-28T13:59:01.857Z,8.93
2023-02-28T14:04:19.648Z,8.27
2023-02-28T14:09:29.518Z,26.63
2023-02-28T14:14:52.071Z,8.73
2023-02-28T14:19:51.360Z,11.03
2023-02-28T14:25:07.569Z,10.17
2023-02-28T14:30:33.143Z,9.33
2023-02-28T14:35:38.983Z,8.47
2023-02-28T14:40:40.310Z,8.77
2023-02-28T14:45:29.540Z,8.97
2023-02-28T14:50:29.854Z,8.97
2023-02-28T14:55:21.221Z,10.03
2023-02-28T15:00:22.409Z,9.60
2023-02-28T15:05:31.153Z,9.27
2023-02-28T15:10:32.232Z,8.57
2023-02-28T15:15:18.763Z,9.77
2023-02-28T15:20:06.600Z,10.37
2023-02-28T15:24:55.997Z,10.93
2023-02-28T15:29:56.750Z,8.33
2023-02-28T15:35:20.864Z,9.80
2023-02-28T15:40:25.653Z,9.77
2023-02-28T15:45:29.679Z,9.50
2023-02-28T15:50:16.470Z,10.93
2023-02-28T15:55:01.042Z,10.23
2023-02-28T15:59:54.426Z,10.07
2023-02-28T16:04:39.504Z,10.00
2023-02-28T16:09:28.128Z,10.33
2023-02-28T16:14:18.451Z,10.47
2023-02-28T16:19:03.350Z,10.17
2023-02-28T16:23:48.691Z,10.67
2023-02-28T16:28:41.575Z,9.67
2023-02-28T16:33:25.159Z,10.67
2023-02-28T16:38:13.121Z,11.93
2023-02-28T16:43:02.139Z,10.97
2023-02-28T16:47:52.038Z,11.07
2023-02-28T16:52:37.471Z,11.10
2023-02-28T16:57:25.858Z,10.60
2023-02-28T17:02:15.462Z,11.57
2023-02-28T17:07:02.110Z,12.47
2023-02-28T17:11:48.480Z,11.37
2023-02-28T17:16:40.822Z,12.10
2023-02-28T17:21:24.332Z,11.67
2023-02-28T17:26:14.855Z,11.77
2023-02-28T17:31:01.312Z,11.57
2023-02-28T17:35:48.565Z,12.53
2023-02-28T17:40:41.456Z,12.87
2023-02-28T17:45:25.238Z,14.43
2023-02-28T17:50:17.770Z,15.50
2023-02-28T17:55:02.994Z,14.63
2023-02-28T17:59:48.532Z,14.20
2023-02-28T18:04:41.371Z,13.53
2023-02-28T18:09:25.281Z,13.13
2023-02-28T18:14:13.653Z,14.23
2023-02-28T18:19:03.271Z,12.60
2023-02-28T18:23:50.164Z,12.33
2023-02-28T18:28:42.435Z,12.00
2023-02-28T18:33:27.274Z,13.77
2023-02-28T18:38:15.069Z,14.73
2023-02-28T18:43:01.829Z,14.47
2023-02-28T18:47:51.251Z,13.87
2023-02-28T18:52:37.009Z,13.37
2023-02-28T18:57:30.218Z,15.43
2023-02-28T19:02:13.810Z,14.80
2023-02-28T19:07:03.306Z,15.33
2023-02-28T19:11:51.125Z,15.30
2023-02-28T19:16:36.998Z,17.53
2023-02-28T19:21:26.115Z,18.03
2023-02-28T19:26:14.852Z,17.50
2023-02-28T19:31:02.733Z,17.87
2023-02-28T19:35:49.637Z,16.97
2023-02-28T19:40:36.476Z,17.07
2023-02-28T19:45:23.849Z,17.27
2023-02-28T19:50:32.535Z,19.37
2023-02-28T19:55:16.193Z,16.17
2023-02-28T20:00:05.646Z,17.83
2023-02-28T20:05:09.912Z,16.73
2023-02-28T20:10:01.437Z,19.23
2023-02-28T20:14:45.555Z,18.77
2023-02-28T20:19:35.181Z,18.90
2023-02-28T20:24:23.357Z,18.30
2023-02-28T20:29:13.821Z,18.93
2023-02-28T20:33:57.698Z,18.63
2023-02-28T20:38:51.527Z,16.40
2023-02-28T20:44:08.234Z,17.70
2023-02-28T20:48:54.726Z,17.63
2023-02-28T20:53:41.379Z,18.07
2023-02-28T20:58:30.028Z,16.07
2023-02-28T21:03:18.166Z,17.00
2023-02-28T21:08:07.438Z,17.73
2023-02-28T21:12:59.139Z,16.93
2023-02-28T21:17:56.391Z,17.27
2023-02-28T21:22:50.358Z,17.20
2023-02-28T21:27:35.522Z,18.67
2023-02-28T21:32:22.187Z,17.50
2023-02-28T21:37:12.931Z,18.17
2023-02-28T21:41:57.641Z,18.40
2023-02-28T21:46:46.686Z,19.00
2023-02-28T21:51:34.209Z,18.87
2023-02-28T21:56:23.756Z,19.63
2023-02-28T22:01:12.359Z,19.83
2023-02-28T22:06:09.288Z,18.17
2023-02-28T22:11:06.973Z,19.27
2023-02-28T22:16:20.335Z,19.43
2023-02-28T22:21:38.395Z,19.67
2023-02-28T22:26:30.190Z,21.00
2023-02-28T22:31:30.757Z,21.93
2023-02-28T22:41:42.939Z,21.33
2023-02-28T22:47:01.845Z,21.97
2023-02-28T22:52:55.010Z,20.30
2023-02-28T23:09:14.740Z,21.80
2023-02-28T23:14:14.577Z,18.70
2023-02-28T23:19:07.370Z,19.57
2023-02-28T23:24:26.676Z,18.20
2023-02-28T23:29:57.234Z,17.20
2023-02-28T23:34:46.674Z,17.93
2023-02-28T23:40:24.723Z,17.20
2023-02-28T23:45:46.145Z,16.80
2023-02-28T23:51:32.093Z,17.20
2023-02-28T23:56:35.660Z,16.63
